Terminal Aerodrome Forecast
Issued by NWS

Current Version | Previous Version | Graphics & Text | Print | Product List | Glossary On
Versions: 1 2 3 4 5 6 7 8 9 10 11 12 13 14 15 16 17
425
FTUS41 KILN 162332
TAFLCK
TAF
KLCK 162332Z 1700/1724 27014G22KT P6SM VCSH SCT025 OVC040
      TEMPO 1700/1704 4SM -SHSN BKN020
     FM170500 25014KT P6SM BKN020 OVC040
     FM171000 26014G20KT P6SM BKN020 OVC035
     FM171400 27017G24KT P6SM BKN025 OVC035
     FM172300 28012KT P6SM SCT250=

USA.gov is the U.S. government's official web portal to all federal, state and local government web resources and services.